| time (UTC) | temp F | wind direction | speed MPH | gust MPH | rain 1hr in | rain 24hr in | rain mn in | humidity % | barometer mb |
| 20260901010032 | 77 | 247 | 2.0 | 6.0 | 0.00 | 0.00 | 0.00 | 41 | 1012.3 |
| 20260901004609 | 78 | 258 | 3.0 | 8.0 | 0.00 | 0.00 | 0.00 | 36 | 1012.3 |
| 20260901003109 | 78 | 272 | 5.0 | 11.0 | 0.00 | 0.00 | 0.00 | 35 | 1012.4 |
| 20260901001529 | 79 | 274 | 4.0 | 11.0 | 0.00 | 0.00 | 0.00 | 36 | 1012.4 |
| 20260901000035 | 80 | 281 | 4.0 | 10.0 | 0.00 | 0.00 | 0.00 | 37 | 1012.5 |
| 20260831234535 | 78 | 272 | 4.0 | 11.0 | 0.00 | 0.00 | 0.00 | 37 | 1012.5 |
| 20260831233033 | 79 | 260 | 4.0 | 12.0 | 0.00 | 0.00 | 0.00 | 37 | 1012.7 |
| 20260831231532 | 80 | 263 | 5.0 | 11.0 | 0.00 | 0.00 | 0.00 | 38 | 1012.9 |
| 20260831230037 | 80 | 245 | 3.0 | 10.0 | 0.00 | 0.00 | 0.00 | 37 | 1013.0 |
| 20260831224535 | 80 | 271 | 5.0 | 14.0 | 0.00 | 0.00 | 0.00 | 37 | 1013.2 |
| 20260831223035 | 80 | 256 | 5.0 | 11.0 | 0.00 | 0.00 | 0.00 | 38 | 1013.3 |
| 20260831221533 | 79 | 259 | 5.0 | 14.0 | 0.00 | 0.00 | 0.00 | 39 | 1013.5 |
| 20260831220032 | 78 | 259 | 6.0 | 13.0 | 0.00 | 0.00 | 0.00 | 39 | 1013.7 |
| 20260831214642 | 77 | 265 | 7.0 | 15.0 | 0.00 | 0.00 | 0.00 | 40 | 1013.8 |
| 20260831211538 | 77 | 275 | 7.0 | 15.0 | 0.00 | 0.00 | 0.00 | 40 | 1014.1 |
| 20260831204534 | 77 | 246 | 6.0 | 12.0 | 0.00 | 0.00 | 0.00 | 43 | 1014.3 |
| 20260831203029 | 76 | 255 | 4.0 | 9.0 | 0.00 | 0.00 | 0.00 | 42 | 1014.5 |
| 20260831201540 | 75 | 277 | 4.0 | 10.0 | 0.00 | 0.00 | 0.00 | 45 | 1014.8 |
| 20260831201533 | 74 | 259 | 4.0 | 12.0 | 0.00 | 0.00 | 0.00 | 46 | 1015.0 |
| 20260831194532 | 73 | 240 | 3.0 | 9.0 | 0.00 | 0.00 | 0.00 | 49 | 1015.3 |
| 20260831193108 | 72 | 251 | 5.0 | 12.0 | 0.00 | 0.00 | 0.00 | 48 | 1015.5 |
| 20260831191536 | 72 | 276 | 4.0 | 11.0 | 0.00 | 0.00 | 0.00 | 50 | 1015.7 |
| 20260831190034 | 71 | 294 | 4.0 | 10.0 | 0.00 | 0.00 | 0.00 | 52 | 1016.0 |
| 20260831184535 | 70 | 249 | 2.0 | 6.0 | 0.00 | 0.00 | 0.00 | 54 | 1016.3 |
| 20260831183031 | 69 | 290 | 2.0 | 7.0 | 0.00 | 0.00 | 0.00 | 56 | 1016.5 |
| 20260831181536 | 68 | 295 | 2.0 | 7.0 | 0.00 | 0.00 | 0.00 | 57 | 1016.7 |
| 20260831174536 | 66 | 295 | 1.0 | 6.0 | 0.00 | 0.00 | 0.00 | 58 | 1017.1 |
| 20260831173109 | 65 | 282 | 1.0 | 6.0 | 0.00 | 0.00 | 0.00 | 59 | 1017.2 |
| 20260831171534 | 64 | 289 | 1.0 | 5.0 | 0.00 | 0.00 | 0.00 | 61 | 1017.3 |
| 20260831170036 | 63 | 277 | 2.0 | 5.0 | 0.00 | 0.00 | 0.00 | 61 | 1017.5 |
| 20260831164532 | 62 | 274 | 0.0 | 5.0 | 0.00 | 0.00 | 0.00 | 64 | 1017.7 |
| 20260831163035 | 61 | 290 | 1.0 | 5.0 | 0.00 | 0.00 | 0.00 | 68 | 1017.8 |
| 20260831161659 | 58 | 294 | 0.0 | 4.0 | 0.00 | 0.00 | 0.00 | 73 | 1017.8 |
| 20260831160033 | 57 | 132 | 0.0 | 0.0 | 0.00 | 0.00 | 0.00 | 75 | 1017.9 |
| 20260831154532 | 55 | 135 | 0.0 | 2.0 | 0.00 | 0.00 | 0.00 | 81 | 1017.9 |
| 20260831153034 | 52 | 136 | 1.0 | 3.0 | 0.00 | 0.00 | 0.00 | 86 | 1017.9 |
| 20260831151530 | 49 | 137 | 2.0 | 4.0 | 0.00 | 0.00 | 0.00 | 91 | 1017.9 |
| 20260831150035 | 46 | 149 | 2.0 | 5.0 | 0.00 | 0.00 | 0.00 | 92 | 1017.9 |
| 20260831144533 | 45 | 149 | 3.0 | 5.0 | 0.00 | 0.00 | 0.00 | 93 | 1017.8 |
| 20260831143033 | 44 | 155 | 4.0 | 6.0 | 0.00 | 0.00 | 0.00 | 93 | 1017.6 |
| 20260831141532 | 43 | 145 | 3.0 | 6.0 | 0.00 | 0.00 | 0.00 | 93 | 1017.6 |
| 20260831140036 | 43 | 153 | 3.0 | 5.0 | 0.00 | 0.00 | 0.00 | 93 | 1017.5 |
| 20260831134534 | 43 | 152 | 4.0 | 6.0 | 0.00 | 0.00 | 0.00 | 93 | 1017.5 |
| 20260831133033 | 43 | 157 | 4.0 | 5.0 | 0.00 | 0.00 | 0.00 | 92 | 1017.4 |
| 20260831131533 | 43 | 145 | 4.0 | 6.0 | 0.00 | 0.00 | 0.00 | 92 | 1017.5 |
| 20260831130034 | 44 | 153 | 4.0 | 6.0 | 0.00 | 0.00 | 0.00 | 92 | 1017.6 |
| 20260831124612 | 44 | 157 | 4.0 | 6.0 | 0.00 | 0.00 | 0.00 | 91 | 1017.5 |
| 20260831123034 | 44 | 168 | 4.0 | 6.0 | 0.00 | 0.00 | 0.00 | 91 | 1017.4 |
| 20260831121536 | 44 | 161 | 3.0 | 5.0 | 0.00 | 0.00 | 0.00 | 91 | 1017.4 |
| 20260831120110 | 44 | 160 | 4.0 | 5.0 | 0.00 | 0.00 | 0.00 | 91 | 1017.5 |
| 20260831113033 | 45 | 153 | 3.0 | 6.0 | 0.00 | 0.00 | 0.00 | 90 | 1017.6 |
| 20260831111536 | 45 | 149 | 3.0 | 6.0 | 0.00 | 0.00 | 0.00 | 90 | 1017.6 |
| 20260831110036 | 46 | 147 | 4.0 | 6.0 | 0.00 | 0.00 | 0.00 | 90 | 1017.7 |
| 20260831104536 | 45 | 157 | 4.0 | 6.0 | 0.00 | 0.00 | 0.00 | 90 | 1017.7 |
| 20260831103035 | 45 | 154 | 3.0 | 5.0 | 0.00 | 0.00 | 0.00 | 89 | 1017.8 |
| 20260831101534 | 46 | 156 | 4.0 | 5.0 | 0.00 | 0.00 | 0.00 | 89 | 1017.8 |
| 20260831100034 | 46 | 153 | 4.0 | 6.0 | 0.00 | 0.00 | 0.00 | 89 | 1017.9 |
| 20260831094534 | 46 | 155 | 4.0 | 6.0 | 0.00 | 0.00 | 0.00 | 89 | 1018.1 |
| 20260831093031 | 46 | 150 | 3.0 | 6.0 | 0.00 | 0.00 | 0.00 | 88 | 1018.2 |
| 20260831091537 | 47 | 154 | 3.0 | 4.0 | 0.00 | 0.00 | 0.00 | 88 | 1018.3 |
| 20260831090035 | 47 | 152 | 3.0 | 5.0 | 0.00 | 0.00 | 0.00 | 89 | 1018.3 |
| 20260831084534 | 47 | 153 | 3.0 | 5.0 | 0.00 | 0.00 | 0.00 | 89 | 1018.4 |
| 20260831083033 | 46 | 152 | 3.0 | 5.0 | 0.00 | 0.00 | 0.00 | 89 | 1018.6 |
| 20260831081535 | 47 | 149 | 3.0 | 5.0 | 0.00 | 0.00 | 0.00 | 88 | 1018.7 |
| 20260831080035 | 47 | 148 | 3.0 | 5.0 | 0.00 | 0.00 | 0.00 | 88 | 1018.8 |
| 20260831074535 | 48 | 155 | 3.0 | 5.0 | 0.00 | 0.00 | 0.00 | 88 | 1018.8 |
| 20260831073033 | 48 | 153 | 3.0 | 6.0 | 0.00 | 0.00 | 0.00 | 88 | 1018.8 |
| 20260831070035 | 48 | 143 | 3.0 | 5.0 | 0.00 | 0.00 | 0.00 | 87 | 1019.0 |
| 20260831064533 | 49 | 148 | 3.0 | 5.0 | 0.00 | 0.00 | 0.00 | 86 | 1019.0 |
| 20260831063031 | 49 | 157 | 3.0 | 5.0 | 0.00 | 0.00 | 0.00 | 85 | 1019.1 |
| 20260831061532 | 49 | 159 | 3.0 | 5.0 | 0.00 | 0.00 | 0.00 | 85 | 1019.2 |
| 20260831053036 | 50 | 150 | 2.0 | 4.0 | 0.00 | 0.00 | 0.00 | 83 | 1019.5 |
| 20260831050036 | 51 | 144 | 3.0 | 5.0 | 0.00 | 0.00 | 0.00 | 82 | 1019.7 |
| 20260831044535 | 52 | 156 | 3.0 | 6.0 | 0.00 | 0.00 | 0.00 | 81 | 1019.8 |
| 20260831043035 | 52 | 156 | 3.0 | 5.0 | 0.00 | 0.00 | 0.00 | 81 | 1019.8 |
| 20260831041542 | 52 | 158 | 4.0 | 5.0 | 0.00 | 0.00 | 0.00 | 81 | 1019.8 |
| 20260831040036 | 52 | 157 | 5.0 | 6.0 | 0.00 | 0.00 | 0.00 | 81 | 1019.7 |
| 20260831034534 | 52 | 158 | 4.0 | 6.0 | 0.00 | 0.00 | 0.00 | 80 | 1019.6 |
| 20260831033035 | 54 | 157 | 2.0 | 3.0 | 0.00 | 0.00 | 0.00 | 76 | 1019.6 |
| 20260831031537 | 57 | 157 | 2.0 | 3.0 | 0.00 | 0.00 | 0.00 | 70 | 1019.5 |
| 20260831030030 | 60 | 307 | 2.0 | 5.0 | 0.00 | 0.00 | 0.00 | 61 | 1019.6 |
| 20260831024610 | 62 | 312 | 4.0 | 10.0 | 0.00 | 0.00 | 0.00 | 57 | 1019.5 |
| 20260831023110 | 63 | 307 | 4.0 | 9.0 | 0.00 | 0.00 | 0.00 | 55 | 1019.4 |
| 20260831021608 | 64 | 316 | 5.0 | 11.0 | 0.00 | 0.00 | 0.00 | 53 | 1019.5 |
| 20260831020109 | 65 | 321 | 5.0 | 9.0 | 0.00 | 0.00 | 0.00 | 51 | 1019.4 |
| 20260831014535 | 66 | 314 | 4.0 | 11.0 | 0.00 | 0.00 | 0.00 | 50 | 1019.5 |
| 20260831013030 | 67 | 313 | 4.0 | 10.0 | 0.00 | 0.00 | 0.00 | 48 | 1019.6 |
| 20260831011530 | 68 | 296 | 6.0 | 12.0 | 0.00 | 0.00 | 0.00 | 45 | 1019.6 |